createdAt,value
2018-09-27T00:00:44.201Z,69.30
2018-09-27T00:03:12.399Z,69.90
2018-09-27T00:05:40.037Z,69.90
2018-09-27T00:08:07.766Z,70.80
2018-09-27T00:10:35.432Z,70.10
2018-09-27T00:13:06.653Z,70.40
2018-09-27T00:15:34.281Z,70.60
2018-09-27T00:18:01.946Z,70.80
2018-09-27T00:20:29.571Z,70.60
2018-09-27T00:22:57.501Z,70.60
2018-09-27T00:25:25.158Z,70.40
2018-09-27T00:27:52.895Z,70.50
2018-09-27T00:30:20.872Z,70.80
2018-09-27T00:32:48.674Z,70.50
2018-09-27T00:35:16.266Z,70.70
2018-09-27T00:37:43.873Z,71.10
2018-09-27T00:40:11.502Z,71.10
2018-09-27T00:42:39.103Z,70.80
2018-09-27T00:45:07.915Z,70.50
2018-09-27T00:47:35.578Z,70.50
2018-09-27T00:50:03.314Z,70.70
2018-09-27T00:52:30.886Z,70.60
2018-09-27T00:54:58.802Z,70.20
2018-09-27T00:57:26.266Z,70.00
2018-09-27T00:59:54.009Z,69.50
2018-09-27T01:02:21.443Z,69.20
2018-09-27T01:04:48.975Z,69.30
2018-09-27T01:07:16.415Z,69.60
2018-09-27T01:09:43.991Z,69.70
2018-09-27T01:12:11.452Z,69.70
2018-09-27T01:14:39.070Z,69.80
2018-09-27T01:17:06.616Z,69.30
2018-09-27T01:19:34.179Z,69.50
2018-09-27T01:22:01.664Z,69.80
2018-09-27T01:24:29.210Z,70.10
2018-09-27T01:26:57.349Z,69.60
2018-09-27T01:29:24.900Z,69.90
2018-09-27T01:31:52.334Z,69.90
2018-09-27T01:34:19.791Z,71.00
2018-09-27T01:36:47.193Z,70.60
2018-09-27T01:39:14.751Z,70.50
2018-09-27T01:41:42.178Z,69.70
2018-09-27T01:44:09.613Z,69.50
2018-09-27T01:46:37.018Z,69.50
2018-09-27T01:49:04.804Z,69.70
2018-09-27T01:51:32.247Z,69.60
2018-09-27T01:53:59.698Z,69.80
2018-09-27T01:56:27.667Z,69.90
2018-09-27T01:58:55.260Z,69.90
2018-09-27T02:01:23.714Z,70.30
2018-09-27T02:03:51.142Z,70.50
2018-09-27T02:06:18.659Z,70.60
2018-09-27T02:08:46.078Z,70.40
2018-09-27T02:11:13.551Z,70.40
2018-09-27T02:13:41.015Z,69.80
2018-09-27T02:16:08.616Z,69.80
2018-09-27T02:18:36.140Z,69.80
2018-09-27T02:21:03.638Z,70.00
2018-09-27T02:23:31.090Z,70.10
2018-09-27T02:25:58.538Z,69.80
2018-09-27T02:28:26.043Z,70.00
2018-09-27T02:30:53.607Z,70.10
2018-09-27T02:33:21.150Z,70.30
2018-09-27T02:35:48.551Z,70.50
2018-09-27T02:38:16.060Z,70.00
2018-09-27T02:40:43.477Z,70.30
2018-09-27T02:43:10.986Z,69.80
2018-09-27T02:45:38.538Z,69.70
2018-09-27T02:48:06.117Z,70.10
2018-09-27T02:50:33.655Z,70.30
2018-09-27T02:53:01.218Z,70.60
2018-09-27T02:55:28.929Z,70.20
2018-09-27T02:57:56.450Z,69.80
2018-09-27T03:00:23.948Z,69.40
2018-09-27T03:02:51.510Z,69.70
2018-09-27T03:05:19.042Z,69.90
2018-09-27T03:07:46.569Z,69.60
2018-09-27T03:10:14.144Z,69.50
2018-09-27T03:12:41.663Z,69.50
2018-09-27T03:15:09.937Z,69.40
2018-09-27T03:17:37.431Z,69.80
2018-09-27T03:20:05.213Z,69.30
2018-09-27T03:22:32.804Z,69.70
2018-09-27T03:25:00.311Z,70.00
2018-09-27T03:27:27.804Z,70.40
2018-09-27T03:29:55.310Z,70.20
2018-09-27T03:32:22.762Z,70.40
2018-09-27T03:34:50.338Z,70.00
2018-09-27T03:37:17.787Z,70.20
2018-09-27T03:39:45.401Z,70.30
2018-09-27T03:42:13.033Z,69.70
2018-09-27T03:44:40.622Z,69.80
2018-09-27T03:47:08.173Z,69.70
2018-09-27T03:49:35.690Z,69.50
2018-09-27T03:52:03.201Z,69.30
2018-09-27T03:54:30.739Z,69.60
2018-09-27T03:56:58.179Z,69.30
2018-09-27T03:59:25.627Z,69.60
2018-09-27T04:01:53.046Z,70.30
2018-09-27T04:04:20.550Z,70.60
2018-09-27T04:06:47.979Z,70.40
2018-09-27T04:09:15.709Z,70.40
2018-09-27T04:11:43.281Z,70.60
2018-09-27T04:14:10.776Z,70.60
2018-09-27T04:16:38.386Z,70.70
2018-09-27T04:19:05.905Z,70.60
2018-09-27T04:21:33.446Z,70.40
2018-09-27T04:24:01.103Z,70.60
2018-09-27T04:26:28.743Z,69.70
2018-09-27T04:28:56.198Z,69.50
2018-09-27T04:31:23.634Z,69.70
2018-09-27T04:33:51.139Z,70.00
2018-09-27T04:38:55.626Z,70.30
2018-09-27T04:41:23.182Z,70.30
2018-09-27T04:43:50.650Z,70.20
2018-09-27T04:46:18.351Z,69.80
2018-09-27T04:48:45.807Z,70.10
2018-09-27T04:51:13.311Z,70.40
2018-09-27T04:53:40.820Z,69.90
2018-09-27T04:56:08.407Z,70.30
2018-09-27T04:58:35.862Z,70.50
2018-09-27T05:01:03.346Z,70.20
2018-09-27T05:03:30.820Z,70.10
2018-09-27T05:05:58.309Z,69.90
2018-09-27T05:08:25.833Z,69.70
2018-09-27T05:10:53.338Z,69.90
2018-09-27T05:13:21.230Z,69.90
2018-09-27T05:15:48.681Z,70.00
2018-09-27T05:18:16.252Z,70.20
2018-09-27T05:20:43.860Z,70.30
2018-09-27T05:23:11.363Z,70.30
2018-09-27T05:25:38.839Z,70.00
2018-09-27T05:28:06.875Z,70.30
2018-09-27T05:30:34.404Z,70.10
2018-09-27T05:33:02.083Z,69.90
2018-09-27T05:35:29.699Z,70.00
2018-09-27T05:37:57.134Z,70.30
2018-09-27T05:40:24.620Z,70.50
2018-09-27T05:42:52.428Z,70.60
2018-09-27T05:45:19.955Z,70.80
2018-09-27T05:47:47.627Z,70.70
2018-09-27T05:50:15.198Z,70.80
2018-09-27T05:52:42.672Z,70.80
2018-09-27T05:55:10.238Z,70.70
2018-09-27T05:57:38.013Z,70.20
2018-09-27T06:00:05.499Z,69.90
2018-09-27T06:02:33.136Z,69.80
2018-09-27T06:05:00.666Z,69.80
2018-09-27T06:07:28.252Z,70.40
2018-09-27T06:09:55.718Z,70.00
2018-09-27T06:12:23.176Z,70.10
2018-09-27T06:14:51.048Z,70.60
2018-09-27T06:17:18.592Z,71.10
2018-09-27T06:19:46.103Z,70.50
2018-09-27T06:22:13.654Z,70.40
2018-09-27T06:24:41.179Z,70.60
2018-09-27T06:27:09.040Z,70.60
2018-09-27T06:29:36.647Z,70.80
2018-09-27T06:32:04.230Z,70.50
2018-09-27T06:34:31.705Z,70.80
2018-09-27T06:36:59.174Z,70.60
2018-09-27T06:39:26.739Z,70.50
2018-09-27T06:41:54.295Z,70.80
2018-09-27T06:44:21.854Z,70.30
2018-09-27T06:46:49.480Z,70.20
2018-09-27T06:49:17.028Z,70.50
2018-09-27T06:51:44.490Z,70.80
2018-09-27T06:54:12.029Z,71.70
2018-09-27T06:56:39.570Z,71.30
2018-09-27T06:59:07.764Z,71.80
2018-09-27T07:01:35.241Z,71.60
2018-09-27T07:04:02.894Z,71.90
2018-09-27T07:06:30.579Z,72.20
2018-09-27T07:08:58.099Z,72.00
2018-09-27T07:11:25.582Z,72.00
2018-09-27T07:13:53.071Z,72.50
2018-09-27T07:16:20.639Z,73.30
2018-09-27T07:18:48.506Z,72.30
2018-09-27T07:21:15.886Z,72.60
2018-09-27T07:23:43.346Z,72.20
2018-09-27T07:26:10.838Z,72.60
2018-09-27T07:28:38.572Z,71.70
2018-09-27T07:31:07.356Z,72.90
2018-09-27T07:33:34.847Z,74.60
2018-09-27T07:36:02.351Z,73.50
2018-09-27T07:38:30.088Z,73.00
2018-09-27T07:40:57.543Z,73.60
2018-09-27T07:43:26.153Z,74.50
2018-09-27T07:45:53.702Z,73.40
2018-09-27T07:48:21.309Z,73.40
2018-09-27T07:50:48.847Z,73.00
2018-09-27T07:53:16.423Z,72.90
2018-09-27T07:55:43.968Z,73.50
2018-09-27T07:58:11.464Z,74.40
2018-09-27T08:00:39.355Z,74.40
2018-09-27T08:03:06.989Z,74.20
2018-09-27T08:05:34.665Z,73.80
2018-09-27T08:08:02.315Z,73.00
2018-09-27T08:10:29.882Z,72.70
2018-09-27T08:12:57.464Z,72.30
2018-09-27T08:15:25.176Z,70.40
2018-09-27T08:17:52.779Z,71.60
2018-09-27T08:20:20.464Z,71.80
2018-09-27T08:22:51.332Z,70.90
2018-09-27T08:25:18.845Z,71.30
2018-09-27T08:27:46.302Z,71.60
2018-09-27T08:30:14.287Z,70.40
2018-09-27T08:32:41.884Z,70.60
2018-09-27T08:35:09.311Z,70.40
2018-09-27T08:37:36.976Z,69.60
2018-09-27T08:40:04.590Z,69.40
2018-09-27T08:42:32.416Z,69.10
2018-09-27T08:45:05.476Z,69.30
2018-09-27T08:47:32.930Z,67.80
2018-09-27T08:50:01.128Z,67.50
2018-09-27T08:52:30.218Z,67.70
2018-09-27T11:01:29.624Z,54.80
2018-09-27T11:03:59.140Z,53.50
2018-09-27T11:09:47.012Z,53.50
2018-09-27T11:12:25.252Z,53.50
2018-09-27T11:14:55.912Z,54.10
2018-09-27T11:17:25.258Z,54.40
2018-09-27T11:19:58.110Z,53.60
2018-09-27T11:22:27.079Z,53.10
2018-09-27T11:24:58.624Z,52.70
2018-09-27T11:27:27.362Z,52.50
2018-09-27T11:38:49.289Z,52.30
2018-09-27T11:41:20.551Z,50.70
2018-09-27T11:43:50.239Z,50.90
2018-09-27T11:46:38.984Z,51.00
2018-09-27T11:49:12.696Z,51.20
2018-09-27T11:51:50.416Z,49.80
2018-09-27T11:57:19.708Z,50.90
2018-09-27T11:59:48.468Z,52.50
2018-09-27T12:02:17.586Z,50.20
2018-09-27T12:04:47.311Z,50.30
2018-09-27T12:07:21.184Z,50.50
2018-09-27T12:09:50.519Z,50.30
2018-09-27T12:12:22.342Z,49.60
2018-09-27T12:15:08.247Z,50.00
2018-09-27T12:17:39.551Z,48.90
2018-09-27T12:20:12.118Z,48.10
2018-09-27T12:22:44.451Z,49.70
2018-09-27T12:25:20.545Z,49.30
2018-09-27T12:27:49.690Z,49.50
2018-09-27T12:30:34.165Z,49.80
2018-09-27T13:34:20.670Z,43.20
2018-09-27T13:37:12.889Z,43.00
2018-09-27T13:42:34.861Z,41.20
2018-09-27T13:45:12.914Z,42.20
2018-09-27T13:47:43.077Z,42.90
2018-09-27T13:53:06.009Z,42.60
2018-09-27T13:55:48.935Z,42.90
2018-09-27T14:00:56.582Z,42.80
2018-09-27T14:03:39.453Z,41.70
2018-09-27T14:06:08.766Z,41.50
2018-09-27T14:08:38.709Z,42.10
2018-09-27T14:13:49.733Z,43.10
2018-09-27T14:16:18.893Z,41.10
2018-09-27T14:18:47.519Z,40.60
2018-09-27T14:21:18.243Z,40.40
2018-09-27T14:23:47.775Z,38.20
2018-09-27T14:26:17.159Z,39.80
2018-09-27T14:28:48.373Z,40.10
2018-09-27T14:31:17.170Z,39.70
2018-09-27T14:33:48.140Z,39.60
2018-09-27T14:36:16.832Z,39.10
2018-09-27T14:39:33.672Z,39.40
2018-09-27T14:42:06.137Z,39.20
2018-09-27T14:44:40.104Z,39.50
2018-09-27T14:47:13.198Z,39.50
2018-09-27T14:49:43.135Z,39.50
2018-09-27T14:52:17.618Z,39.00
2018-09-27T14:54:48.036Z,40.00
2018-09-27T14:57:17.589Z,39.30
2018-09-27T14:59:48.365Z,39.40
2018-09-27T15:02:18.827Z,38.60
2018-09-27T15:04:48.817Z,37.40
2018-09-27T15:07:19.394Z,38.20
2018-09-27T15:09:48.363Z,38.30
2018-09-27T15:12:20.573Z,39.40
2018-09-27T15:14:49.814Z,39.60
2018-09-27T15:17:19.345Z,40.10
2018-09-27T15:19:48.732Z,37.30
2018-09-27T15:25:06.917Z,38.90
2018-09-27T15:27:40.577Z,39.70
2018-09-27T15:30:10.300Z,38.40
2018-09-27T15:32:39.896Z,37.50
2018-09-27T15:35:13.022Z,39.70
2018-09-27T15:37:55.843Z,38.40
2018-09-27T15:40:26.504Z,39.50
2018-09-27T15:43:00.683Z,40.20
2018-09-27T15:45:31.614Z,40.60
2018-09-27T15:48:02.370Z,39.60
2018-09-27T15:50:34.253Z,40.00
2018-09-27T15:53:04.241Z,40.50
2018-09-27T15:55:37.998Z,40.70
2018-09-27T15:58:08.215Z,40.90
2018-09-27T16:00:37.832Z,40.70
2018-09-27T16:03:08.566Z,41.70
2018-09-27T16:08:42.518Z,42.70
2018-09-27T16:11:14.170Z,42.80
2018-09-27T16:13:43.198Z,41.30
2018-09-27T16:16:12.721Z,42.00
2018-09-27T16:18:45.588Z,42.40
2018-09-27T16:21:15.234Z,43.00
2018-09-27T16:23:47.918Z,43.40
2018-09-27T16:26:32.798Z,42.80
2018-09-27T16:29:08.195Z,43.80
2018-09-27T16:31:45.953Z,44.30
2018-09-27T16:34:19.702Z,44.70
2018-09-27T16:36:49.681Z,45.00
2018-09-27T16:39:24.620Z,45.30
2018-09-27T16:41:56.143Z,45.90
2018-09-27T16:44:26.970Z,46.10
2018-09-27T16:47:03.068Z,46.60
2018-09-27T16:49:43.023Z,46.90
2018-09-27T16:58:07.589Z,49.60
2018-09-27T17:00:45.998Z,50.10
2018-09-27T17:03:19.297Z,50.50
2018-09-27T17:05:48.472Z,51.40
2018-09-27T17:08:24.270Z,51.70
2018-09-27T17:10:57.032Z,52.70
2018-09-27T18:10:38.630Z,53.60
2018-09-27T18:13:08.477Z,62.40
2018-09-27T18:15:36.564Z,63.10
2018-09-27T18:18:09.382Z,63.20
2018-09-27T18:20:39.117Z,63.80
2018-09-27T18:25:47.995Z,64.90
2018-09-27T18:28:41.555Z,65.10
2018-09-27T18:33:50.488Z,63.80
2018-09-27T18:39:17.456Z,63.50
2018-09-27T18:41:47.282Z,63.70
2018-09-27T18:44:15.910Z,64.40
2018-09-27T18:46:44.111Z,64.40
2018-09-27T18:49:20.073Z,64.30
2018-09-27T18:51:47.768Z,64.80
2018-09-27T18:54:19.372Z,64.90
2018-09-27T18:56:47.510Z,64.80
2018-09-27T18:59:21.284Z,65.00
2018-09-27T19:02:01.606Z,65.00
2018-09-27T19:04:34.949Z,65.10
2018-09-27T19:07:12.201Z,65.80
2018-09-27T19:09:41.719Z,65.70
2018-09-27T19:12:11.696Z,65.80
2018-09-27T19:14:43.313Z,66.10
2018-09-27T19:17:15.078Z,66.30
2018-09-27T19:19:43.277Z,66.10
2018-09-27T19:22:13.428Z,66.90
2018-09-27T19:24:45.786Z,67.00
2018-09-27T19:27:17.203Z,66.70
2018-09-27T19:29:49.128Z,66.70
2018-09-27T19:32:21.887Z,68.00
2018-09-27T19:34:55.799Z,68.20
2018-09-27T19:37:29.760Z,68.40
2018-09-27T19:40:00.360Z,67.30
2018-09-27T19:45:07.975Z,68.20
2018-09-27T19:47:47.467Z,67.60
2018-09-27T19:50:22.567Z,67.60
2018-09-27T19:52:57.186Z,67.40
2018-09-27T19:55:28.017Z,68.30
2018-09-27T19:58:08.196Z,67.90
2018-09-27T20:00:41.841Z,68.20
2018-09-27T20:03:09.468Z,68.50
2018-09-27T20:05:37.982Z,68.50
2018-09-27T20:08:05.751Z,67.90
2018-09-27T20:10:34.600Z,68.00
2018-09-27T20:13:03.209Z,68.00
2018-09-27T20:15:31.202Z,68.10
2018-09-27T20:17:59.064Z,68.60
2018-09-27T20:20:27.795Z,68.40
2018-09-27T20:22:56.925Z,68.80
2018-09-27T20:25:26.689Z,68.40
2018-09-27T20:27:55.875Z,68.30
2018-09-27T20:30:24.735Z,68.00
2018-09-27T20:32:52.384Z,67.90
2018-09-27T21:20:10.338Z,67.80
2018-09-27T21:22:46.303Z,70.00
2018-09-27T21:25:20.524Z,70.20
2018-09-27T21:27:57.148Z,70.30
2018-09-27T21:30:26.138Z,70.60
2018-09-27T21:32:56.003Z,70.30
2018-09-27T21:35:25.704Z,70.00
2018-09-27T21:37:56.856Z,70.20
2018-09-27T21:40:29.089Z,70.20
2018-09-27T21:42:57.045Z,70.60
2018-09-27T21:45:25.741Z,71.10
2018-09-27T21:47:55.686Z,70.80
2018-09-27T21:50:23.314Z,70.70
2018-09-27T21:52:52.766Z,70.90
2018-09-27T21:55:28.641Z,70.90
2018-09-27T21:57:57.039Z,71.20
2018-09-27T22:00:24.837Z,71.20
2018-09-27T22:02:52.497Z,71.60
2018-09-27T22:05:20.127Z,72.00
2018-09-27T22:07:47.926Z,71.60
2018-09-27T22:10:15.571Z,70.90
2018-09-27T22:12:44.123Z,70.40
2018-09-27T22:15:11.806Z,70.00
2018-09-27T22:17:39.340Z,70.10
2018-09-27T22:20:06.891Z,69.80
2018-09-27T22:22:34.302Z,69.90
2018-09-27T22:25:01.792Z,69.90
2018-09-27T22:27:29.821Z,69.90
2018-09-27T22:29:57.346Z,70.00
2018-09-27T22:32:24.977Z,70.10
2018-09-27T22:34:52.554Z,70.40
2018-09-27T22:37:20.132Z,71.00
2018-09-27T22:39:47.869Z,71.50
2018-09-27T22:42:15.388Z,71.20
2018-09-27T22:44:42.876Z,71.00
2018-09-27T22:47:10.562Z,71.40
2018-09-27T22:49:38.167Z,71.30
2018-09-27T22:52:05.782Z,71.40
2018-09-27T22:54:33.603Z,71.00
2018-09-27T22:57:01.053Z,71.10
2018-09-27T22:59:29.225Z,71.30
2018-09-27T23:01:56.790Z,71.40
2018-09-27T23:04:24.887Z,71.40
2018-09-27T23:06:52.852Z,71.00
2018-09-27T23:09:20.328Z,71.30
2018-09-27T23:11:49.101Z,71.50
2018-09-27T23:14:16.670Z,72.00
2018-09-27T23:16:44.219Z,72.50
2018-09-27T23:19:11.782Z,72.80
2018-09-27T23:21:39.702Z,72.50
2018-09-27T23:24:07.757Z,72.90
2018-09-27T23:26:35.255Z,73.00
2018-09-27T23:29:02.839Z,73.00
2018-09-27T23:31:30.467Z,73.10
2018-09-27T23:33:58.184Z,72.80
2018-09-27T23:36:25.748Z,72.20
2018-09-27T23:38:54.252Z,72.40
2018-09-27T23:41:21.874Z,71.60
2018-09-27T23:43:49.408Z,72.00
2018-09-27T23:46:16.911Z,72.00
2018-09-27T23:48:45.838Z,71.90
2018-09-27T23:51:13.399Z,71.60
2018-09-27T23:53:40.969Z,72.00
2018-09-27T23:56:08.541Z,72.10
2018-09-27T23:58:36.106Z,71.80
